createdAt,value
2022-10-24T00:01:20.991Z,67.12
2022-10-24T00:03:49.285Z,66.39
2022-10-24T00:06:17.740Z,67.12
2022-10-24T00:08:45.365Z,69.49
2022-10-24T00:11:15.530Z,69.53
2022-10-24T00:13:43.333Z,68.70
2022-10-24T00:16:10.282Z,71.00
2022-10-24T00:18:36.952Z,68.20
2022-10-24T00:21:04.750Z,68.25
2022-10-24T00:23:31.807Z,66.94
2022-10-24T00:26:01.975Z,65.82
2022-10-24T00:28:29.691Z,65.91
2022-10-24T00:30:57.394Z,65.59
2022-10-24T00:33:24.533Z,67.85
2022-10-24T00:35:51.570Z,67.48
2022-10-24T00:38:18.327Z,69.09
2022-10-24T00:40:45.340Z,70.15
2022-10-24T00:43:22.188Z,70.53
2022-10-24T00:45:57.811Z,69.78
2022-10-24T00:48:33.910Z,69.49
2022-10-24T00:51:28.363Z,69.45
2022-10-24T00:54:08.585Z,67.42
2022-10-24T00:56:41.447Z,66.69
2022-10-24T00:59:10.853Z,66.54
2022-10-24T01:01:38.574Z,65.47
2022-10-24T01:04:06.936Z,68.46
2022-10-24T01:06:36.169Z,69.25
2022-10-24T01:09:21.109Z,70.22
2022-10-24T01:11:55.149Z,69.63
2022-10-24T01:14:37.075Z,66.39
2022-10-24T01:17:03.753Z,65.08
2022-10-24T01:20:07.126Z,64.27
2022-10-24T01:22:43.440Z,64.47
2022-10-24T01:25:35.071Z,65.14
2022-10-24T01:28:05.717Z,67.26
2022-10-24T01:30:43.466Z,66.45
2022-10-24T01:33:19.467Z,67.63
2022-10-24T01:35:58.289Z,68.59
2022-10-24T01:38:38.973Z,66.80
2022-10-24T01:41:13.526Z,67.96
2022-10-24T01:43:45.105Z,67.58
2022-10-24T01:46:18.333Z,67.89
2022-10-24T01:48:49.304Z,68.92
2022-10-24T01:51:20.497Z,69.74
2022-10-24T01:53:48.471Z,68.86
2022-10-24T01:56:15.243Z,69.84
2022-10-24T01:58:42.150Z,69.45
2022-10-24T02:01:15.129Z,69.05
2022-10-24T02:03:48.364Z,70.48
2022-10-24T02:06:37.915Z,71.10
2022-10-24T02:09:11.083Z,70.11
2022-10-24T02:11:39.035Z,69.29
2022-10-24T02:14:16.251Z,70.39
2022-10-24T02:16:44.295Z,68.81
2022-10-24T02:19:13.860Z,67.71
2022-10-24T02:21:43.602Z,67.21
2022-10-24T02:24:22.123Z,66.82
2022-10-24T02:26:56.092Z,66.71
2022-10-24T02:29:30.043Z,65.73
2022-10-24T02:31:58.996Z,67.00
2022-10-24T02:34:33.119Z,68.71
2022-10-24T02:37:01.952Z,69.31
2022-10-24T02:39:30.549Z,70.00
2022-10-24T02:41:58.346Z,70.64
2022-10-24T02:44:27.205Z,71.63
2022-10-24T02:46:58.205Z,71.86
2022-10-24T02:49:25.177Z,71.93
2022-10-24T02:51:53.126Z,71.56
2022-10-24T02:54:19.860Z,70.75
2022-10-24T02:56:56.254Z,69.67
2022-10-24T02:59:30.804Z,68.39
2022-10-24T03:01:58.115Z,67.09
2022-10-24T03:04:24.918Z,65.61
2022-10-24T03:06:53.406Z,64.35
2022-10-24T03:09:20.045Z,63.46
2022-10-24T03:11:46.844Z,63.11
2022-10-24T03:14:13.546Z,63.54
2022-10-24T03:16:40.209Z,64.51
2022-10-24T03:19:06.988Z,64.48
2022-10-24T03:21:34.013Z,64.42
2022-10-24T03:24:00.632Z,65.75
2022-10-24T03:26:27.360Z,65.62
2022-10-24T03:28:54.165Z,65.82
2022-10-24T03:31:20.714Z,65.91
2022-10-24T03:33:47.357Z,67.38
2022-10-24T03:36:13.986Z,66.70
2022-10-24T03:38:40.629Z,69.27
2022-10-24T03:41:07.272Z,70.63
2022-10-24T03:43:33.864Z,72.00
2022-10-24T03:46:00.502Z,72.80
2022-10-24T03:48:27.231Z,73.86
2022-10-24T03:50:54.003Z,74.21
2022-10-24T03:53:20.727Z,73.67
2022-10-24T03:55:47.967Z,75.04
2022-10-24T03:58:14.829Z,74.63
2022-10-24T04:00:42.638Z,74.80
2022-10-24T04:03:09.964Z,74.11
2022-10-24T04:05:36.905Z,74.50
2022-10-24T04:08:03.853Z,74.56
2022-10-24T04:10:31.435Z,74.25
2022-10-24T04:12:58.277Z,73.84
2022-10-24T04:15:24.913Z,74.46
2022-10-24T04:17:52.011Z,74.59
2022-10-24T04:20:20.577Z,74.08
2022-10-24T04:22:47.921Z,73.96
2022-10-24T04:25:15.534Z,73.93
2022-10-24T04:27:42.333Z,73.72
2022-10-24T04:30:16.740Z,73.13
2022-10-24T04:32:44.281Z,72.58
2022-10-24T04:35:11.664Z,73.07
2022-10-24T04:37:40.545Z,73.64
2022-10-24T04:40:07.696Z,72.88
2022-10-24T04:42:34.663Z,72.45
2022-10-24T04:45:01.345Z,72.57
2022-10-24T04:47:28.010Z,72.14
2022-10-24T04:49:54.863Z,71.94
2022-10-24T04:52:21.465Z,72.68
2022-10-24T04:54:48.081Z,72.78
2022-10-24T04:57:14.691Z,73.43
2022-10-24T04:59:41.406Z,72.80
2022-10-24T05:02:08.137Z,73.06
2022-10-24T05:04:34.692Z,72.70
2022-10-24T05:07:01.754Z,72.43
2022-10-24T05:09:28.665Z,71.95
2022-10-24T05:11:57.515Z,71.45
2022-10-24T05:14:24.899Z,70.44
2022-10-24T05:16:51.633Z,71.12
2022-10-24T05:19:19.747Z,72.61
2022-10-24T05:21:46.995Z,72.70
2022-10-24T05:24:13.902Z,73.01
2022-10-24T05:26:40.605Z,72.43
2022-10-24T05:31:34.261Z,72.89
2022-10-24T05:34:01.171Z,73.27
2022-10-24T05:36:28.088Z,73.86
2022-10-24T05:38:54.711Z,73.90
2022-10-24T05:41:21.439Z,73.99
2022-10-24T05:43:49.790Z,73.51
2022-10-24T05:46:16.763Z,73.39
2022-10-24T05:48:43.477Z,73.17
2022-10-24T05:51:10.175Z,71.55
2022-10-24T05:53:36.985Z,71.72
2022-10-24T05:56:03.876Z,71.18
2022-10-24T05:58:30.611Z,72.06
2022-10-24T06:00:57.645Z,72.02
2022-10-24T06:03:24.785Z,71.51
2022-10-24T06:05:51.517Z,71.78
2022-10-24T06:08:18.191Z,72.36
2022-10-24T06:10:50.130Z,72.30
2022-10-24T06:13:17.742Z,72.45
2022-10-24T06:15:44.439Z,71.39
2022-10-24T06:18:11.607Z,72.16
2022-10-24T06:20:38.511Z,71.90
2022-10-24T06:23:05.252Z,71.14
2022-10-24T06:25:32.195Z,71.63
2022-10-24T06:27:59.233Z,70.97
2022-10-24T06:30:26.252Z,71.58
2022-10-24T06:32:53.296Z,71.63
2022-10-24T06:35:20.110Z,70.65
2022-10-24T06:37:48.203Z,70.84
2022-10-24T06:40:16.115Z,70.75
2022-10-24T06:42:42.860Z,69.08
2022-10-24T06:45:10.144Z,69.33
2022-10-24T06:47:36.771Z,69.14
2022-10-24T06:50:05.366Z,70.40
2022-10-24T06:52:32.087Z,69.52
2022-10-24T06:54:58.894Z,69.14
2022-10-24T06:57:25.550Z,69.16
2022-10-24T06:59:53.396Z,69.72
2022-10-24T07:02:20.297Z,69.91
2022-10-24T07:04:47.120Z,69.38
2022-10-24T07:07:20.192Z,68.55
2022-10-24T07:09:53.588Z,69.19
2022-10-24T07:12:21.688Z,69.10
2022-10-24T07:14:48.575Z,69.05
2022-10-24T07:17:19.233Z,67.98
2022-10-24T07:19:51.467Z,67.77
2022-10-24T07:22:18.941Z,66.99
2022-10-24T07:24:46.857Z,66.48
2022-10-24T07:27:13.560Z,66.63
2022-10-24T07:29:40.370Z,67.02
2022-10-24T07:32:07.103Z,68.17
2022-10-24T07:34:34.963Z,66.95
2022-10-24T07:37:03.912Z,66.05
2022-10-24T07:39:30.611Z,64.94
2022-10-24T07:41:58.557Z,64.08
2022-10-24T07:44:25.412Z,62.93
2022-10-24T07:46:56.136Z,63.49
2022-10-24T07:49:23.049Z,62.80
2022-10-24T07:51:49.871Z,63.21
2022-10-24T07:54:16.622Z,62.39
2022-10-24T07:56:43.360Z,62.58
2022-10-24T07:59:30.034Z,62.98
2022-10-24T08:01:57.098Z,63.04
2022-10-24T08:04:25.853Z,64.21
2022-10-24T08:06:52.503Z,64.30
2022-10-24T08:09:20.431Z,65.60
2022-10-24T08:11:47.314Z,64.31
2022-10-24T08:14:14.048Z,64.50
2022-10-24T08:16:42.264Z,65.18
2022-10-24T08:19:08.999Z,65.89
2022-10-24T08:21:36.359Z,65.15
2022-10-24T08:24:03.174Z,65.94
2022-10-24T08:26:29.979Z,64.67
2022-10-24T08:28:57.806Z,64.84
2022-10-24T08:31:26.392Z,65.11
2022-10-24T08:33:55.081Z,63.53
2022-10-24T08:36:28.811Z,64.14
2022-10-24T08:38:56.033Z,65.43
2022-10-24T08:41:27.021Z,65.13
2022-10-24T08:43:54.986Z,64.02
2022-10-24T08:46:44.396Z,64.69
2022-10-24T08:52:01.651Z,64.86
2022-10-24T08:54:37.042Z,64.14
2022-10-24T08:57:06.132Z,63.71
2022-10-24T08:59:36.338Z,63.20
2022-10-24T09:02:14.039Z,65.08
2022-10-24T09:04:49.798Z,64.88
2022-10-24T09:07:21.906Z,64.98
2022-10-24T09:10:35.388Z,66.19
2022-10-24T09:13:03.029Z,65.27
2022-10-24T09:15:30.646Z,65.15
2022-10-24T09:17:59.667Z,64.45
2022-10-24T09:20:33.580Z,64.70
2022-10-24T09:23:05.166Z,66.08
2022-10-24T09:25:35.766Z,64.30
2022-10-24T09:28:04.691Z,65.17
2022-10-24T09:30:36.145Z,63.98
2022-10-24T09:33:17.272Z,64.24
2022-10-24T09:35:44.906Z,63.64
2022-10-24T09:38:34.134Z,63.54
2022-10-24T09:41:27.264Z,63.49
2022-10-24T09:44:02.037Z,63.24
2022-10-24T09:46:36.772Z,64.07
2022-10-24T09:49:13.959Z,64.02
2022-10-24T09:51:47.766Z,64.11
2022-10-24T09:54:20.371Z,64.12
2022-10-24T10:00:03.716Z,64.71
2022-10-24T10:02:38.081Z,64.09
2022-10-24T10:05:18.680Z,63.21
2022-10-24T10:07:48.684Z,63.28
2022-10-24T10:10:19.356Z,62.32
2022-10-24T10:12:55.373Z,62.60
2022-10-24T10:15:28.975Z,62.86
2022-10-24T10:18:01.848Z,62.32
2022-10-24T10:20:43.425Z,62.42
2022-10-24T10:23:29.445Z,62.96
2022-10-24T10:26:19.129Z,63.04
2022-10-24T10:28:50.548Z,63.42
2022-10-24T10:31:21.293Z,62.58
2022-10-24T10:34:03.583Z,62.00
2022-10-24T10:36:49.884Z,61.39
2022-10-24T10:39:59.352Z,62.64
2022-10-24T10:42:38.560Z,61.17
2022-10-24T10:45:23.925Z,61.49
2022-10-24T10:48:01.676Z,61.91
2022-10-24T10:50:47.926Z,61.82
2022-10-24T10:53:30.075Z,61.41
2022-10-24T10:56:19.671Z,61.14
2022-10-24T10:59:05.887Z,62.00
2022-10-24T11:01:32.759Z,61.53
2022-10-24T11:04:09.368Z,61.60
2022-10-24T11:07:04.134Z,60.93
2022-10-24T11:10:09.636Z,59.33
2022-10-24T11:12:40.030Z,60.06
2022-10-24T11:15:27.203Z,59.05
2022-10-24T11:18:10.072Z,60.66
2022-10-24T11:20:55.377Z,59.57
2022-10-24T11:23:29.447Z,59.01
2022-10-24T11:25:58.820Z,58.60
2022-10-24T11:28:49.658Z,59.63
2022-10-24T11:31:43.596Z,59.39
2022-10-24T11:34:27.992Z,61.23
2022-10-24T11:36:58.572Z,60.78
2022-10-24T11:39:30.619Z,60.44
2022-10-24T11:42:18.743Z,58.68
2022-10-24T11:44:56.006Z,58.94
2022-10-24T11:47:28.225Z,59.34
2022-10-24T11:50:14.985Z,59.16
2022-10-24T11:52:54.725Z,58.66
2022-10-24T11:55:37.721Z,60.04
2022-10-24T11:58:13.596Z,60.52
2022-10-24T12:00:58.688Z,59.89
2022-10-24T12:03:43.826Z,60.50
2022-10-24T12:06:24.799Z,60.74
2022-10-24T12:09:13.551Z,60.37
2022-10-24T12:12:01.875Z,60.01
2022-10-24T12:14:43.811Z,61.79
2022-10-24T12:17:36.830Z,60.30
2022-10-24T12:20:11.931Z,61.55
2022-10-24T12:22:43.717Z,61.44
2022-10-24T12:25:23.627Z,60.61
2022-10-24T12:28:21.195Z,60.99
2022-10-24T12:31:16.205Z,62.25
2022-10-24T12:33:48.024Z,62.27
2022-10-24T12:36:15.015Z,62.56
2022-10-24T12:38:43.146Z,63.18
2022-10-24T12:41:31.878Z,63.97
2022-10-24T12:44:30.266Z,65.97
2022-10-24T12:47:05.308Z,65.78
2022-10-24T12:49:33.470Z,64.97
2022-10-24T12:52:40.421Z,66.65
2022-10-24T12:55:39.769Z,67.12
2022-10-24T12:58:38.371Z,66.92
2022-10-24T13:01:37.667Z,67.17
2022-10-24T13:04:22.955Z,67.84
2022-10-24T13:07:08.605Z,67.90
2022-10-24T13:10:05.356Z,66.85
2022-10-24T13:12:57.003Z,67.24
2022-10-24T13:15:36.013Z,67.56
2022-10-24T13:18:21.754Z,67.15
2022-10-24T13:20:54.213Z,67.54
2022-10-24T13:23:28.450Z,67.19
2022-10-24T13:25:57.389Z,67.82
2022-10-24T13:28:25.058Z,68.21
2022-10-24T13:31:15.194Z,68.62
2022-10-24T13:33:44.327Z,68.19
2022-10-24T13:36:24.246Z,67.04
2022-10-24T13:39:00.750Z,67.53
2022-10-24T13:41:36.288Z,68.57
2022-10-24T13:44:29.576Z,69.70
2022-10-24T13:47:07.585Z,71.05
2022-10-24T13:49:39.981Z,70.82
2022-10-24T13:52:25.503Z,70.78
2022-10-24T13:55:19.630Z,71.32
2022-10-24T13:58:08.023Z,72.16
2022-10-24T14:00:49.744Z,71.46
2022-10-24T14:03:19.980Z,71.62
2022-10-24T14:06:04.160Z,70.77
2022-10-24T14:08:37.385Z,71.05
2022-10-24T14:11:08.814Z,70.59
2022-10-24T14:13:49.015Z,69.44
2022-10-24T14:16:16.258Z,69.80
2022-10-24T14:18:44.746Z,70.09
2022-10-24T14:21:22.480Z,69.82
2022-10-24T14:23:57.730Z,68.93
2022-10-24T14:26:25.214Z,68.75
2022-10-24T14:29:00.081Z,68.39
2022-10-24T14:31:35.191Z,69.06
2022-10-24T14:34:05.973Z,68.54
2022-10-24T14:36:38.716Z,68.50
2022-10-24T14:39:06.250Z,69.15
2022-10-24T14:41:40.272Z,68.44
2022-10-24T14:44:07.717Z,68.21
2022-10-24T14:46:43.952Z,68.33
2022-10-24T14:49:23.348Z,69.08
2022-10-24T14:54:22.639Z,71.12
2022-10-24T14:56:50.495Z,68.93
2022-10-24T14:59:33.282Z,69.41
2022-10-24T15:02:04.438Z,67.46
2022-10-24T15:04:38.102Z,65.83
2022-10-24T15:07:22.890Z,68.90
2022-10-24T15:10:04.265Z,70.42
2022-10-24T15:12:40.197Z,70.16
2022-10-24T15:15:34.075Z,70.89
2022-10-24T15:18:17.484Z,70.25
2022-10-24T15:20:46.756Z,68.52
2022-10-24T15:23:27.557Z,66.71
2022-10-24T15:26:04.147Z,65.54
2022-10-24T15:28:45.219Z,66.63
2022-10-24T15:31:18.051Z,67.41
2022-10-24T15:33:45.457Z,65.68
2022-10-24T15:36:30.773Z,68.25
2022-10-24T15:39:25.005Z,70.88
2022-10-24T15:41:55.584Z,72.01
2022-10-24T15:44:27.147Z,71.01
2022-10-24T15:46:55.522Z,70.71
2022-10-24T15:49:24.229Z,71.41
2022-10-24T15:51:51.680Z,71.26
2022-10-24T15:54:21.820Z,72.05
2022-10-24T15:56:49.554Z,70.24
2022-10-24T15:59:17.637Z,71.30
2022-10-24T16:01:54.139Z,71.12
2022-10-24T16:04:21.908Z,71.35
2022-10-24T16:06:51.116Z,72.14
2022-10-24T16:09:25.021Z,72.63
2022-10-24T16:11:51.723Z,72.35
2022-10-24T16:14:21.757Z,71.58
2022-10-24T16:16:48.593Z,71.67
2022-10-24T16:19:15.410Z,71.42
2022-10-24T16:21:48.213Z,72.23
2022-10-24T16:24:18.600Z,70.57
2022-10-24T16:26:45.652Z,69.34
2022-10-24T16:29:12.648Z,67.74
2022-10-24T16:31:39.690Z,68.26
2022-10-24T16:34:09.432Z,69.52
2022-10-24T16:36:42.671Z,70.78
2022-10-24T16:39:17.203Z,70.39
2022-10-24T16:41:46.337Z,71.13
2022-10-24T16:44:17.073Z,70.48
2022-10-24T16:46:43.819Z,71.26
2022-10-24T16:49:10.523Z,71.96
2022-10-24T16:51:41.720Z,71.35
2022-10-24T16:54:18.411Z,71.49
2022-10-24T16:56:54.028Z,72.02
2022-10-24T16:59:23.301Z,72.42
2022-10-24T17:01:52.781Z,71.73
2022-10-24T17:04:19.641Z,72.23
2022-10-24T17:06:46.453Z,72.54
2022-10-24T17:09:13.879Z,72.37
2022-10-24T17:11:45.489Z,73.56
2022-10-24T17:14:14.410Z,73.47
2022-10-24T17:16:45.269Z,72.80
2022-10-24T17:19:16.086Z,72.27
2022-10-24T17:21:50.667Z,71.45
2022-10-24T17:24:23.293Z,71.77
2022-10-24T17:26:51.145Z,70.72
2022-10-24T17:29:26.503Z,70.15
2022-10-24T17:31:54.211Z,70.52
2022-10-24T17:34:21.609Z,69.90
2022-10-24T17:37:12.429Z,70.24
2022-10-24T17:40:03.404Z,69.88
2022-10-24T17:42:30.150Z,70.95
2022-10-24T17:44:58.093Z,70.51
2022-10-24T17:47:25.061Z,70.21
2022-10-24T17:49:51.711Z,70.44
2022-10-24T17:52:24.383Z,70.76
2022-10-24T17:54:51.601Z,70.71
2022-10-24T17:57:18.363Z,70.86
2022-10-24T17:59:45.580Z,69.67
2022-10-24T18:02:16.046Z,69.07
2022-10-24T18:04:45.497Z,67.47
2022-10-24T18:07:12.509Z,65.44
2022-10-24T18:09:40.255Z,65.94
2022-10-24T18:12:08.601Z,67.40
2022-10-24T18:14:37.454Z,66.86
2022-10-24T18:17:04.737Z,67.07
2022-10-24T18:19:33.048Z,67.90
2022-10-24T18:22:01.009Z,66.26
2022-10-24T18:24:27.678Z,68.25
2022-10-24T18:26:57.599Z,68.88
2022-10-24T18:29:24.618Z,69.12
2022-10-24T18:31:52.577Z,68.03
2022-10-24T18:34:19.527Z,68.88
2022-10-24T18:36:46.303Z,69.25
2022-10-24T18:39:14.210Z,69.42
2022-10-24T18:41:44.946Z,70.34
2022-10-24T18:44:23.958Z,70.69
2022-10-24T18:46:53.225Z,70.17
2022-10-24T18:49:20.767Z,69.96
2022-10-24T18:52:09.481Z,69.49
2022-10-24T18:54:52.008Z,69.78
2022-10-24T18:57:28.751Z,69.96
2022-10-24T18:59:58.395Z,69.65
2022-10-24T19:02:59.509Z,69.43
2022-10-24T19:05:47.978Z,69.01
2022-10-24T19:08:24.484Z,69.70
2022-10-24T19:10:57.112Z,68.37
2022-10-24T19:13:27.432Z,69.55
2022-10-24T19:16:09.071Z,68.61
2022-10-24T19:18:37.644Z,68.08
2022-10-24T19:21:05.127Z,68.15
2022-10-24T19:23:31.907Z,68.71
2022-10-24T19:25:58.743Z,68.33
2022-10-24T19:28:25.595Z,67.70
2022-10-24T19:30:52.915Z,69.54
2022-10-24T19:33:22.148Z,69.84
2022-10-24T19:35:49.182Z,69.96
2022-10-24T19:38:18.151Z,69.30
2022-10-24T19:40:53.724Z,68.34
2022-10-24T19:43:22.624Z,68.64
2022-10-24T19:46:07.249Z,69.58
2022-10-24T19:48:38.829Z,70.05
2022-10-24T19:51:13.087Z,69.79
2022-10-24T19:53:41.796Z,69.95
2022-10-24T19:56:14.083Z,70.13
2022-10-24T19:58:41.546Z,69.70
2022-10-24T20:01:20.334Z,69.81
2022-10-24T20:03:48.694Z,68.93
2022-10-24T20:06:16.415Z,68.68
2022-10-24T20:08:46.582Z,69.46
2022-10-24T20:11:15.447Z,69.17
2022-10-24T20:13:43.776Z,67.93
2022-10-24T20:16:10.770Z,68.57
2022-10-24T20:18:39.024Z,68.85
2022-10-24T20:21:08.599Z,68.95
2022-10-24T20:23:37.078Z,69.58
2022-10-24T20:26:10.342Z,69.02
2022-10-24T20:28:40.150Z,69.60
2022-10-24T20:31:07.530Z,69.82
2022-10-24T20:33:34.817Z,70.31
2022-10-24T20:36:02.155Z,70.02
2022-10-24T20:38:29.392Z,69.97
2022-10-24T20:41:02.074Z,70.29
2022-10-24T20:43:29.427Z,71.17
2022-10-24T20:45:56.219Z,70.73
2022-10-24T20:48:24.294Z,71.23
2022-10-24T20:50:51.321Z,70.12
2022-10-24T20:53:20.643Z,69.61
2022-10-24T20:55:47.455Z,69.11
2022-10-24T20:58:14.365Z,67.83
2022-10-24T21:03:12.249Z,66.99
2022-10-24T21:05:39.516Z,67.41
2022-10-24T21:08:06.685Z,65.74
2022-10-24T21:10:33.337Z,64.62
2022-10-24T21:13:00.383Z,64.47
2022-10-24T21:15:27.071Z,64.94
2022-10-24T21:17:54.599Z,64.76
2022-10-24T21:20:21.535Z,63.99
2022-10-24T21:22:48.177Z,63.27
2022-10-24T21:25:14.906Z,63.52
2022-10-24T21:27:41.511Z,64.01
2022-10-24T21:30:13.515Z,63.87
2022-10-24T21:32:41.290Z,64.68
2022-10-24T21:35:08.005Z,62.13
2022-10-24T21:37:35.671Z,60.88
2022-10-24T21:40:02.790Z,61.74
2022-10-24T21:42:31.009Z,62.65
2022-10-24T21:44:57.578Z,63.07
2022-10-24T21:47:24.699Z,61.29
2022-10-24T21:49:51.426Z,62.28
2022-10-24T21:52:18.458Z,61.91
2022-10-24T21:54:45.586Z,62.62
2022-10-24T21:57:12.395Z,62.50
2022-10-24T21:59:39.242Z,65.38
2022-10-24T22:02:06.060Z,62.52
2022-10-24T22:04:32.735Z,64.45
2022-10-24T22:06:59.788Z,64.17
2022-10-24T22:09:26.755Z,65.89
2022-10-24T22:11:57.962Z,66.32
2022-10-24T22:14:25.458Z,66.76
2022-10-24T22:16:52.445Z,66.35
2022-10-24T22:19:19.129Z,66.02
2022-10-24T22:21:49.035Z,66.63
2022-10-24T22:24:19.230Z,66.26
2022-10-24T22:26:46.909Z,66.27
2022-10-24T22:29:35.008Z,66.33
2022-10-24T22:32:04.228Z,66.16
2022-10-24T22:34:31.547Z,66.54
2022-10-24T22:37:01.473Z,65.51
2022-10-24T22:39:28.873Z,65.90
2022-10-24T22:41:59.780Z,65.63
2022-10-24T22:44:27.918Z,66.49
2022-10-24T22:47:12.793Z,66.48
2022-10-24T22:50:09.341Z,66.28
2022-10-24T22:52:36.535Z,66.13
2022-10-24T22:55:04.190Z,66.14
2022-10-24T23:00:02.221Z,65.47
2022-10-24T23:02:36.830Z,65.46
2022-10-24T23:05:13.497Z,64.91
2022-10-24T23:07:46.377Z,65.30
2022-10-24T23:10:18.621Z,65.57
2022-10-24T23:12:45.619Z,65.46
2022-10-24T23:15:14.919Z,65.88
2022-10-24T23:17:42.788Z,65.38
2022-10-24T23:20:43.615Z,66.08
2022-10-24T23:23:28.247Z,66.44
2022-10-24T23:26:23.882Z,65.98
2022-10-24T23:28:54.311Z,65.59
2022-10-24T23:31:21.321Z,66.18
2022-10-24T23:33:48.217Z,66.87
2022-10-24T23:36:25.048Z,65.87
2022-10-24T23:38:55.284Z,65.80
2022-10-24T23:41:22.211Z,65.28
2022-10-24T23:43:49.310Z,64.31
2022-10-24T23:46:36.745Z,65.32
2022-10-24T23:49:17.656Z,64.84
2022-10-24T23:51:57.068Z,67.27
2022-10-24T23:54:32.176Z,67.12
2022-10-24T23:56:59.479Z,67.38
2022-10-24T23:59:26.142Z,67.11
